Time;durP1;ratioP1;P1;durP2;ratioP2;P2;SDS_P1;SDS_P2;PMS_P1;PMS_P2;Temp;Humidity;BMP_temperature;BMP_pressure;BME280_temperature;BME280_humidity;BME280_pressure;Samples;Min_cycle;Max_cycle;Signal;HPM_P1;HPM_P2
2023/12/21 00:01:21;;;;;;;9.00;5.00;;;;;;;7.76;100.00;99780.83;109346;1252;65770;-59
2023/12/21 00:03:49;;;;;;;7.30;4.90;;;;;;;7.76;100.00;99782.02;109310;1253;72962;-60
2023/12/21 00:06:16;;;;;;;7.10;4.50;;;;;;;7.76;100.00;99779.46;109317;1253;61748;-59
2023/12/21 00:08:44;;;;;;;8.70;4.90;;;;;;;7.76;100.00;99783.73;109337;1253;60503;-59
2023/12/21 00:11:12;;;;;;;6.80;3.90;;;;;;;7.77;100.00;99783.13;109381;1253;73817;-59
2023/12/21 00:13:40;;;;;;;6.90;3.50;;;;;;;7.79;100.00;99781.52;109306;1255;66604;-60
2023/12/21 00:16:07;;;;;;;5.40;3.70;;;;;;;7.82;100.00;99781.98;109327;1253;73273;-59
2023/12/21 00:18:35;;;;;;;6.30;3.70;;;;;;;7.85;100.00;99780.50;109357;1253;60462;-59
2023/12/21 00:21:03;;;;;;;6.90;3.80;;;;;;;7.85;100.00;99773.31;109364;1253;60128;-59
2023/12/21 00:23:30;;;;;;;5.60;3.40;;;;;;;7.86;100.00;99776.23;109309;1255;74616;-60
2023/12/21 00:25:58;;;;;;;5.30;3.50;;;;;;;7.86;100.00;99771.81;109358;1253;65692;-59
2023/12/21 00:28:26;;;;;;;6.50;3.40;;;;;;;7.86;100.00;99765.17;109345;1253;71500;-60
2023/12/21 00:30:53;;;;;;;6.10;3.00;;;;;;;7.86;100.00;99759.43;109398;1252;60449;-59
2023/12/21 00:33:21;;;;;;;6.70;3.20;;;;;;;7.87;100.00;99757.56;109335;1253;58991;-63
2023/12/21 00:35:49;;;;;;;5.00;3.40;;;;;;;7.89;100.00;99750.45;109336;1253;74100;-59
2023/12/21 00:38:16;;;;;;;5.50;3.50;;;;;;;7.89;100.00;99743.31;109345;1255;66986;-60
2023/12/21 00:40:44;;;;;;;5.90;3.10;;;;;;;7.89;100.00;99741.40;109328;1253;72426;-59
2023/12/21 00:43:11;;;;;;;5.90;2.90;;;;;;;7.91;100.00;99739.29;109391;1253;62584;-60
2023/12/21 00:45:39;;;;;;;6.00;3.30;;;;;;;7.93;100.00;99738.69;109333;1253;60632;-60
2023/12/21 00:48:07;;;;;;;7.00;2.90;;;;;;;7.96;100.00;99731.27;109376;1253;74515;-59
2023/12/21 00:50:35;;;;;;;5.70;3.00;;;;;;;8.00;100.00;99725.90;109413;1252;65784;-59
2023/12/21 00:53:02;;;;;;;5.70;3.20;;;;;;;8.01;100.00;99721.23;109381;1252;72059;-59
2023/12/21 00:55:30;;;;;;;5.30;2.90;;;;;;;8.04;100.00;99714.91;109392;1252;60468;-59
2023/12/21 00:57:58;;;;;;;5.70;3.10;;;;;;;8.05;100.00;99710.79;109309;1252;59793;-58
2023/12/21 01:00:26;;;;;;;6.20;3.00;;;;;;;8.08;100.00;99711.35;109392;1252;73416;-59
2023/12/21 01:02:54;;;;;;;6.40;2.90;;;;;;;8.10;100.00;99708.48;109385;1252;67048;-59
2023/12/21 01:05:22;;;;;;;6.70;3.30;;;;;;;8.13;100.00;99707.29;109383;1252;71463;-59
2023/12/21 01:07:49;;;;;;;5.00;2.90;;;;;;;8.16;100.00;99708.52;109356;1253;60844;-62
2023/12/21 01:10:17;;;;;;;6.50;2.90;;;;;;;8.19;100.00;99712.65;109354;1253;60115;-58
2023/12/21 01:12:44;;;;;;;5.90;2.30;;;;;;;8.22;100.00;99714.84;109459;1252;75186;-56
2023/12/21 01:15:12;;;;;;;5.70;2.80;;;;;;;8.27;100.00;99711.73;109386;1252;66846;-56
2023/12/21 01:17:40;;;;;;;3.90;2.30;;;;;;;8.29;100.00;99714.92;109389;1252;71122;-56
2023/12/21 01:20:08;;;;;;;5.50;2.50;;;;;;;8.31;100.00;99716.91;109327;1252;60473;-57
2023/12/21 01:22:36;;;;;;;5.00;2.40;;;;;;;8.33;100.00;99716.24;109411;1253;61053;-56
2023/12/21 01:25:04;;;;;;;4.70;2.10;;;;;;;8.36;100.00;99716.33;109339;1252;74754;-57
2023/12/21 01:27:32;;;;;;;5.60;2.30;;;;;;;8.38;100.00;99708.71;109418;1253;65545;-56
2023/12/21 01:29:59;;;;;;;6.90;2.10;;;;;;;8.40;100.00;99708.65;109360;1253;72382;-62
2023/12/21 01:32:27;;;;;;;5.30;2.20;;;;;;;8.41;100.00;99707.95;109319;1253;60753;-57
2023/12/21 01:34:55;;;;;;;3.90;1.90;;;;;;;8.43;100.00;99706.48;109349;1251;58993;-57
2023/12/21 01:37:22;;;;;;;5.20;2.30;;;;;;;8.44;100.00;99703.69;109336;1252;74654;-56
2023/12/21 01:39:50;;;;;;;3.80;2.00;;;;;;;8.44;100.00;99701.90;109380;1253;65896;-57
2023/12/21 01:42:18;;;;;;;6.10;2.90;;;;;;;8.45;100.00;99700.92;109312;1255;72736;-62
2023/12/21 01:44:45;;;;;;;5.30;2.90;;;;;;;8.45;100.00;99702.97;109366;1253;61487;-58
2023/12/21 01:47:13;;;;;;;6.00;2.30;;;;;;;8.44;100.00;99703.79;109340;1252;58918;-56
2023/12/21 01:49:40;;;;;;;4.00;2.00;;;;;;;8.44;100.00;99701.51;109399;1253;73446;-57
2023/12/21 01:52:08;;;;;;;6.00;2.30;;;;;;;8.43;100.00;99685.35;109370;1253;65786;-60
2023/12/21 01:54:36;;;;;;;4.10;2.00;;;;;;;8.45;100.00;99680.66;109310;1253;71412;-59
2023/12/21 01:57:04;;;;;;;6.00;2.10;;;;;;;8.45;100.00;99674.20;109376;1253;60401;-57
2023/12/21 01:59:31;;;;;;;4.50;2.20;;;;;;;8.44;100.00;99668.29;109383;1252;60105;-56
2023/12/21 02:02:01;;;;;;;7.30;2.40;;;;;;;8.46;100.00;99669.64;109388;1253;74841;-57
2023/12/21 02:04:29;;;;;;;7.00;2.70;;;;;;;8.48;100.00;99661.45;109356;1253;65646;-57
2023/12/21 02:06:57;;;;;;;5.80;2.40;;;;;;;8.49;100.00;99657.29;109397;1253;72839;-57
2023/12/21 02:09:25;;;;;;;5.30;2.20;;;;;;;8.49;100.00;99646.74;109177;1253;61816;-57
2023/12/21 02:11:52;;;;;;;7.10;3.10;;;;;;;8.49;100.00;99646.90;109377;1253;59105;-57
2023/12/21 02:14:21;;;;;;;5.80;2.40;;;;;;;8.50;100.00;99636.27;109326;1253;74623;-58
2023/12/21 02:16:56;;;;;;;4.20;2.00;;;;;;;8.51;100.00;99632.65;109415;1252;66987;-57
2023/12/21 02:19:23;;;;;;;4.80;2.30;;;;;;;8.51;100.00;99627.77;109351;1253;72743;-57
2023/12/21 02:21:54;;;;;;;5.10;2.00;;;;;;;8.50;100.00;99622.41;109381;1253;61715;-57
2023/12/21 02:24:21;;;;;;;4.00;2.20;;;;;;;8.51;100.00;99620.65;109365;1252;60393;-57
2023/12/21 02:26:49;;;;;;;5.00;2.50;;;;;;;8.52;100.00;99613.65;109422;1253;75071;-58
2023/12/21 02:29:17;;;;;;;5.40;2.70;;;;;;;8.53;100.00;99606.95;109380;1253;67001;-56
2023/12/21 02:31:44;;;;;;;5.50;2.50;;;;;;;8.55;100.00;99599.78;109232;1252;73065;-58
2023/12/21 02:34:12;;;;;;;7.10;2.50;;;;;;;8.56;100.00;99596.05;109371;1253;60450;-56
2023/12/21 02:36:40;;;;;;;5.40;2.50;;;;;;;8.57;100.00;99590.03;109349;1253;59127;-58
2023/12/21 02:39:07;;;;;;;5.40;2.50;;;;;;;8.58;100.00;99584.92;109366;1253;72796;-57
2023/12/21 02:41:35;;;;;;;4.90;2.50;;;;;;;8.61;100.00;99577.14;109395;1252;67053;-57
2023/12/21 02:44:03;;;;;;;5.70;2.60;;;;;;;8.64;100.00;99573.75;109350;1252;71072;-61
2023/12/21 02:46:31;;;;;;;5.30;2.70;;;;;;;8.65;100.00;99572.59;109354;1253;61707;-56
2023/12/21 02:48:59;;;;;;;6.90;3.00;;;;;;;8.68;100.00;99572.78;109407;1253;60103;-57
2023/12/21 02:51:27;;;;;;;6.30;3.10;;;;;;;8.69;100.00;99574.54;109379;1252;74715;-57
2023/12/21 02:53:55;;;;;;;5.20;2.70;;;;;;;8.70;100.00;99573.88;109353;1252;67159;-59
2023/12/21 02:56:23;;;;;;;8.00;3.50;;;;;;;8.72;100.00;99573.21;109400;1252;72704;-58
2023/12/21 02:58:50;;;;;;;6.40;2.60;;;;;;;8.71;100.00;99571.59;109376;1253;61738;-57
2023/12/21 03:01:18;;;;;;;5.60;2.90;;;;;;;8.70;100.00;99564.03;109418;1252;59471;-57
2023/12/21 03:03:45;;;;;;;4.60;2.60;;;;;;;8.70;100.00;99559.30;109405;1253;75124;-57
2023/12/21 03:06:13;;;;;;;6.60;2.80;;;;;;;8.71;100.00;99558.59;109166;1253;65643;-57
2023/12/21 03:08:41;;;;;;;6.50;3.50;;;;;;;8.72;100.00;99556.38;109351;1253;72244;-58
2023/12/21 03:11:08;;;;;;;5.40;3.30;;;;;;;8.71;100.00;99545.45;109370;1253;59232;-57
2023/12/21 03:13:36;;;;;;;7.70;2.80;;;;;;;8.68;100.00;99535.33;109471;1253;58995;-57
2023/12/21 03:16:07;;;;;;;7.10;3.00;;;;;;;8.67;100.00;99535.07;109373;1253;74704;-60
2023/12/21 03:18:36;;;;;;;7.00;3.50;;;;;;;8.68;100.00;99529.88;109385;1253;67147;-58
2023/12/21 03:21:04;;;;;;;6.00;2.80;;;;;;;8.67;100.00;99532.88;109381;1253;71396;-57
2023/12/21 03:23:34;;;;;;;7.10;3.00;;;;;;;8.68;100.00;99530.20;109369;1253;60529;-57
2023/12/21 03:26:01;;;;;;;7.50;2.90;;;;;;;8.68;100.00;99534.44;109411;1253;59443;-57
2023/12/21 03:28:29;;;;;;;7.90;3.70;;;;;;;8.68;100.00;99531.54;109335;1252;74639;-58
2023/12/21 03:30:57;;;;;;;8.90;4.00;;;;;;;8.68;100.00;99532.64;109456;1253;66924;-57
2023/12/21 03:33:24;;;;;;;7.70;3.60;;;;;;;8.67;100.00;99532.59;109190;1253;72749;-58
2023/12/21 03:35:52;;;;;;;7.60;3.50;;;;;;;8.65;100.00;99537.46;109415;1252;60356;-57
2023/12/21 03:38:20;;;;;;;6.80;3.00;;;;;;;8.63;100.00;99541.39;109332;1252;59068;-57
2023/12/21 03:40:47;;;;;;;6.20;3.10;;;;;;;8.62;100.00;99542.90;109415;1252;74738;-56
2023/12/21 03:43:15;;;;;;;7.40;3.00;;;;;;;8.61;100.00;99541.39;109405;1253;65543;-57
2023/12/21 03:45:43;;;;;;;9.50;3.00;;;;;;;8.61;100.00;99537.95;109360;1253;71455;-57
2023/12/21 03:48:10;;;;;;;7.70;3.80;;;;;;;8.61;100.00;99537.42;109402;1253;60499;-57
2023/12/21 03:50:38;;;;;;;8.00;4.10;;;;;;;8.61;100.00;99532.59;109373;1253;59449;-56
2023/12/21 03:53:06;;;;;;;10.30;3.70;;;;;;;8.62;100.00;99529.19;109436;1253;74743;-56
2023/12/21 03:55:33;;;;;;;8.40;3.80;;;;;;;8.60;100.00;99531.38;109417;1253;66069;-57
2023/12/21 03:58:01;;;;;;;10.00;4.10;;;;;;;8.58;100.00;99526.29;109391;1253;72775;-56
2023/12/21 04:00:29;;;;;;;8.80;3.50;;;;;;;8.56;100.00;99523.47;109382;1253;60776;-57
2023/12/21 04:02:56;;;;;;;8.20;3.70;;;;;;;8.56;100.00;99522.99;109393;1253;60457;-56
2023/12/21 04:05:24;;;;;;;7.90;4.30;;;;;;;8.53;100.00;99525.12;109432;1253;73443;-57
2023/12/21 04:07:52;;;;;;;9.70;4.50;;;;;;;8.49;100.00;99517.35;109430;1253;66960;-57
2023/12/21 04:10:19;;;;;;;8.30;3.80;;;;;;;8.48;100.00;99515.27;109342;1253;72537;-61
2023/12/21 04:12:47;;;;;;;6.80;3.90;;;;;;;8.48;100.00;99522.14;109400;1252;60472;-56
2023/12/21 04:15:16;;;;;;;9.20;4.10;;;;;;;8.47;100.00;99522.64;109405;1253;59155;-57
2023/12/21 04:17:44;;;;;;;7.50;4.20;;;;;;;8.48;100.00;99524.09;109391;1253;74741;-58
2023/12/21 04:20:12;;;;;;;8.50;4.10;;;;;;;8.46;100.00;99525.15;109375;1253;65733;-57
2023/12/21 04:22:39;;;;;;;8.10;3.70;;;;;;;8.45;100.00;99528.75;109370;1253;72298;-57
2023/12/21 04:25:07;;;;;;;8.00;3.50;;;;;;;8.46;100.00;99532.39;109351;1253;61705;-57
2023/12/21 04:27:35;;;;;;;9.90;3.40;;;;;;;8.45;100.00;99531.75;109383;1252;60067;-57
2023/12/21 04:30:03;;;;;;;6.40;3.30;;;;;;;8.46;100.00;99530.98;109439;1252;74765;-57
2023/12/21 04:32:31;;;;;;;9.60;3.20;;;;;;;8.46;100.00;99527.95;109141;1253;69246;-61
2023/12/21 04:34:58;;;;;;;8.80;4.00;;;;;;;8.41;100.00;99525.11;109359;1253;72409;-57
2023/12/21 04:37:26;;;;;;;7.10;3.40;;;;;;;8.34;100.00;99518.23;109375;1253;60520;-58
2023/12/21 04:39:54;;;;;;;8.20;3.70;;;;;;;8.38;100.00;99522.56;109398;1253;60069;-58
2023/12/21 04:42:21;;;;;;;8.70;3.70;;;;;;;8.38;100.00;99525.12;109194;1252;74803;-58
2023/12/21 04:44:49;;;;;;;8.80;3.10;;;;;;;8.38;100.00;99525.77;109325;1253;65942;-58
2023/12/21 04:47:17;;;;;;;8.00;3.10;;;;;;;8.38;100.00;99525.03;109374;1253;72727;-57
2023/12/21 04:49:51;;;;;;;7.20;3.40;;;;;;;8.37;100.00;99526.48;109389;1253;61779;-57
2023/12/21 04:52:19;;;;;;;6.70;3.40;;;;;;;8.38;100.00;99527.44;109456;1253;59129;-57
2023/12/21 04:54:47;;;;;;;8.90;4.10;;;;;;;8.39;100.00;99531.27;109300;1253;75086;-58
2023/12/21 04:57:14;;;;;;;8.10;3.50;;;;;;;8.39;100.00;99535.99;109441;1253;67171;-59
2023/12/21 04:59:45;;;;;;;6.70;3.10;;;;;;;8.37;100.00;99537.54;109360;1253;71416;-58
2023/12/21 05:02:12;;;;;;;10.30;3.70;;;;;;;8.36;100.00;99537.48;109378;1253;61898;-58
2023/12/21 05:04:40;;;;;;;6.30;2.90;;;;;;;8.35;100.00;99528.38;109341;1253;59229;-58
2023/12/21 05:07:10;;;;;;;6.50;3.10;;;;;;;8.35;100.00;99522.59;109414;1252;75029;-58
2023/12/21 05:09:38;;;;;;;7.80;3.40;;;;;;;8.34;100.00;99519.35;109410;1253;66348;-58
2023/12/21 05:12:06;;;;;;;5.90;3.40;;;;;;;8.36;100.00;99522.15;109333;1253;72797;-56
2023/12/21 05:14:34;;;;;;;7.40;3.30;;;;;;;8.34;100.00;99522.85;109360;1253;60472;-58
2023/12/21 05:17:01;;;;;;;10.40;3.70;;;;;;;8.34;100.00;99520.13;109358;1252;60114;-57
2023/12/21 05:19:29;;;;;;;7.10;3.30;;;;;;;8.35;100.00;99515.96;109370;1254;73408;-58
2023/12/21 05:21:57;;;;;;;6.40;3.00;;;;;;;8.36;100.00;99518.27;109416;1253;67050;-59
2023/12/21 05:24:24;;;;;;;8.90;3.90;;;;;;;8.35;100.00;99519.59;109373;1253;72824;-61
2023/12/21 05:26:52;;;;;;;7.30;3.60;;;;;;;8.34;100.00;99522.58;109364;1253;60772;-58
2023/12/21 05:29:20;;;;;;;9.60;3.00;;;;;;;8.32;100.00;99524.59;109396;1253;59374;-57
2023/12/21 05:31:47;;;;;;;6.90;3.10;;;;;;;8.34;100.00;99523.94;109352;1252;73758;-58
2023/12/21 05:34:15;;;;;;;6.40;3.50;;;;;;;8.35;100.00;99526.06;109393;1253;66952;-57
2023/12/21 05:36:43;;;;;;;6.70;3.30;;;;;;;8.34;100.00;99524.02;109339;1253;71102;-58
2023/12/21 05:39:11;;;;;;;6.80;3.70;;;;;;;8.35;100.00;99521.51;109376;1253;60445;-58
2023/12/21 05:41:45;;;;;;;7.60;3.70;;;;;;;8.38;100.00;99531.36;109379;1253;58891;-59
2023/12/21 05:44:13;;;;;;;7.80;3.40;;;;;;;8.40;100.00;99532.57;109392;1252;74772;-57
2023/12/21 05:46:42;;;;;;;7.80;3.10;;;;;;;8.41;100.00;99533.34;109335;1253;65956;-58
2023/12/21 05:49:10;;;;;;;8.80;3.10;;;;;;;8.41;100.00;99531.67;109395;1253;71265;-57
2023/12/21 05:51:38;;;;;;;6.20;3.10;;;;;;;8.40;100.00;99529.25;109396;1253;61672;-57
2023/12/21 05:54:06;;;;;;;8.70;3.50;;;;;;;8.40;100.00;99522.98;109374;1251;60098;-58
2023/12/21 05:56:37;;;;;;;6.10;2.70;;;;;;;8.41;100.00;99516.48;109364;1253;74723;-59
2023/12/21 05:59:04;;;;;;;6.30;2.80;;;;;;;8.41;100.00;99512.55;109227;1253;66960;-58
2023/12/21 06:01:32;;;;;;;8.80;2.60;;;;;;;8.42;100.00;99507.33;109375;1253;72609;-58
2023/12/21 06:04:01;;;;;;;5.80;2.70;;;;;;;8.42;100.00;99500.79;109346;1253;60670;-59
2023/12/21 06:06:29;;;;;;;6.00;2.50;;;;;;;8.43;100.00;99497.70;109370;1252;60564;-57
2023/12/21 06:08:56;;;;;;;5.50;2.70;;;;;;;8.47;100.00;99488.27;109378;1252;75333;-58
2023/12/21 06:11:24;;;;;;;7.20;3.00;;;;;;;8.46;100.00;99496.47;109372;1256;65707;-57
2023/12/21 06:13:52;;;;;;;5.70;3.00;;;;;;;8.49;100.00;99498.88;109353;1253;71485;-58
2023/12/21 06:16:19;;;;;;;7.00;2.80;;;;;;;8.51;100.00;99508.20;109395;1253;61696;-59
2023/12/21 06:18:48;;;;;;;5.40;2.60;;;;;;;8.51;100.00;99504.25;109334;1253;59388;-61
2023/12/21 06:21:16;;;;;;;7.60;2.70;;;;;;;8.53;100.00;99501.68;109375;1253;75867;-58
2023/12/21 06:23:44;;;;;;;8.00;3.30;;;;;;;8.54;100.00;99507.95;109391;1252;65673;-57
2023/12/21 06:26:12;;;;;;;7.20;2.80;;;;;;;8.56;100.00;99503.25;109395;1253;71456;-58
2023/12/21 06:28:40;;;;;;;6.80;2.70;;;;;;;8.54;100.00;99497.05;109418;1253;60504;-57
2023/12/21 06:31:13;;;;;;;7.60;3.00;;;;;;;8.56;100.00;99498.70;109331;1254;60070;-57
2023/12/21 06:33:41;;;;;;;7.60;3.50;;;;;;;8.58;100.00;99501.15;109391;1252;74812;-57
2023/12/21 06:36:09;;;;;;;5.90;2.40;;;;;;;8.59;100.00;99497.03;109391;1253;66984;-57
2023/12/21 06:38:36;;;;;;;5.80;3.10;;;;;;;8.60;100.00;99491.02;109388;1253;70894;-57
2023/12/21 06:41:04;;;;;;;5.90;3.20;;;;;;;8.61;100.00;99483.23;109304;1253;61735;-58
2023/12/21 06:43:32;;;;;;;6.00;2.60;;;;;;;8.60;100.00;99477.08;109409;1253;58914;-57
2023/12/21 06:46:01;;;;;;;7.20;3.00;;;;;;;8.62;100.00;99469.29;109379;1252;74643;-57
2023/12/21 06:48:29;;;;;;;7.00;3.10;;;;;;;8.64;100.00;99460.87;109408;1256;65939;-57
2023/12/21 06:50:57;;;;;;;6.80;3.20;;;;;;;8.68;100.00;99464.05;109348;1253;72739;-59
2023/12/21 06:53:24;;;;;;;5.90;3.00;;;;;;;8.70;100.00;99459.91;109348;1253;63864;-58
2023/12/21 06:55:52;;;;;;;10.10;4.30;;;;;;;8.74;100.00;99466.56;109354;1253;59148;-58
2023/12/21 06:58:40;;;;;;;6.70;3.20;;;;;;;8.79;100.00;99464.04;109349;1253;74717;-58
2023/12/21 07:01:08;;;;;;;6.60;3.50;;;;;;;8.84;100.00;99462.05;109367;1253;67655;-59
2023/12/21 07:03:36;;;;;;;9.60;4.20;;;;;;;8.86;100.00;99458.45;109360;1254;72762;-57
2023/12/21 07:06:04;;;;;;;6.50;3.70;;;;;;;8.90;100.00;99461.30;109399;1253;60143;-58
2023/12/21 07:08:31;;;;;;;7.80;3.60;;;;;;;8.91;100.00;99459.72;109426;1252;62646;-59
2023/12/21 07:10:59;;;;;;;9.20;3.70;;;;;;;8.93;100.00;99462.80;109358;1253;74754;-58
2023/12/21 07:13:27;;;;;;;9.80;4.20;;;;;;;8.95;100.00;99462.02;109376;1255;67065;-57
2023/12/21 07:15:54;;;;;;;8.50;3.70;;;;;;;8.97;100.00;99461.07;109361;1253;72587;-58
2023/12/21 07:18:22;;;;;;;7.00;3.60;;;;;;;8.98;100.00;99451.16;109363;1255;63108;-57
2023/12/21 07:20:50;;;;;;;8.40;4.00;;;;;;;8.97;100.00;99449.59;109388;1253;60038;-57
2023/12/21 07:23:17;;;;;;;6.90;4.00;;;;;;;9.00;100.00;99442.36;109350;1253;73467;-63
2023/12/21 07:25:45;;;;;;;8.70;4.40;;;;;;;9.04;100.00;99436.18;109362;1253;65849;-60
2023/12/21 07:28:15;;;;;;;8.40;4.20;;;;;;;9.09;100.00;99433.37;109379;1251;71144;-57
2023/12/21 07:30:43;;;;;;;10.20;4.60;;;;;;;9.09;100.00;99424.29;109316;1254;60082;-57
2023/12/21 07:33:11;;;;;;;11.50;4.00;;;;;;;9.09;100.00;99411.77;109339;1256;61122;-60
2023/12/21 07:35:39;;;;;;;7.10;4.00;;;;;;;9.19;100.00;99406.13;109363;1257;75146;-58
2023/12/21 07:38:06;;;;;;;6.90;3.90;;;;;;;9.30;100.00;99403.01;109386;1253;68100;-57
2023/12/21 07:40:34;;;;;;;8.00;4.10;;;;;;;9.38;100.00;99408.19;109373;1253;72625;-57
2023/12/21 07:43:02;;;;;;;6.80;4.10;;;;;;;9.38;100.00;99410.98;109319;1254;60401;-58
2023/12/21 07:45:30;;;;;;;9.00;4.90;;;;;;;9.40;100.00;99412.28;109347;1253;59466;-58
2023/12/21 07:47:57;;;;;;;8.00;4.10;;;;;;;9.42;100.00;99416.88;109411;1252;73489;-57
2023/12/21 07:50:26;;;;;;;8.70;4.50;;;;;;;9.44;100.00;99411.17;109364;1254;66993;-58
2023/12/21 07:52:56;;;;;;;9.10;4.50;;;;;;;9.46;100.00;99405.64;108976;1254;460399;-58
2023/12/21 07:55:24;;;;;;;9.20;4.20;;;;;;;9.48;100.00;99402.29;109318;1253;60464;-60
2023/12/21 07:57:52;;;;;;;7.90;4.60;;;;;;;9.52;100.00;99396.02;109354;1254;59353;-58
2023/12/21 08:00:19;;;;;;;8.10;4.20;;;;;;;9.57;100.00;99390.70;109396;1253;74705;-57
2023/12/21 08:02:48;;;;;;;7.00;4.00;;;;;;;9.64;100.00;99385.59;109320;1255;68111;-58
2023/12/21 08:05:16;;;;;;;9.40;4.40;;;;;;;9.75;100.00;99380.60;109181;1254;72679;-57
2023/12/21 08:07:44;;;;;;;6.20;3.80;;;;;;;9.88;100.00;99380.45;109352;1253;60693;-62
2023/12/21 08:10:11;;;;;;;6.60;3.80;;;;;;;10.04;100.00;99379.81;109370;1254;61034;-57
2023/12/21 08:12:39;;;;;;;8.20;4.10;;;;;;;10.20;100.00;99376.44;109375;1254;73746;-58
2023/12/21 08:15:09;;;;;;;8.00;4.00;;;;;;;10.29;100.00;99372.45;109212;1252;70277;-57
2023/12/21 08:17:39;;;;;;;8.00;4.00;;;;;;;10.29;100.00;99369.36;109329;1253;74777;-57
2023/12/21 08:20:07;;;;;;;6.00;3.30;;;;;;;10.26;100.00;99373.58;109341;1252;61900;-57
2023/12/21 08:22:34;;;;;;;7.50;4.10;;;;;;;10.22;100.00;99375.00;109332;1253;60098;-58
2023/12/21 08:25:02;;;;;;;8.80;3.80;;;;;;;10.15;100.00;99373.64;109376;1254;74630;-57
2023/12/21 08:27:30;;;;;;;7.20;4.30;;;;;;;10.08;100.00;99362.70;109360;1254;67873;-57
2023/12/21 08:29:59;;;;;;;6.40;3.70;;;;;;;10.05;100.00;99349.58;109319;1254;72415;-58
2023/12/21 08:32:27;;;;;;;8.50;4.50;;;;;;;10.05;100.00;99340.56;109317;1255;60496;-57
2023/12/21 08:34:55;;;;;;;7.40;3.90;;;;;;;10.07;100.00;99327.42;109314;1253;58872;-58
2023/12/21 08:37:23;;;;;;;8.40;4.80;;;;;;;10.14;100.00;99322.56;109346;1254;74740;-57
2023/12/21 08:39:50;;;;;;;9.00;5.00;;;;;;;10.19;100.00;99325.80;109367;1253;66948;-58
2023/12/21 08:42:18;;;;;;;8.50;4.80;;;;;;;10.19;100.00;99327.04;109289;1254;72724;-57
2023/12/21 08:44:48;;;;;;;10.50;4.60;;;;;;;10.12;100.00;99323.48;109426;1251;60479;-57
2023/12/21 08:47:16;;;;;;;7.40;4.50;;;;;;;10.06;100.00;99316.69;109411;1253;58950;-57
2023/12/21 08:49:43;;;;;;;10.90;6.40;;;;;;;10.05;100.00;99313.36;109364;1253;75131;-58
2023/12/21 08:52:11;;;;;;;8.00;5.20;;;;;;;10.00;100.00;99313.27;109314;1253;65798;-58
2023/12/21 08:54:40;;;;;;;9.20;5.10;;;;;;;9.95;100.00;99308.20;109371;1253;71438;-58
2023/12/21 08:57:11;;;;;;;7.80;5.20;;;;;;;9.91;100.00;99304.39;109319;1254;63944;-58
2023/12/21 08:59:39;;;;;;;9.10;5.40;;;;;;;9.89;100.00;99299.44;109221;1252;60646;-57
2023/12/21 09:02:07;;;;;;;9.60;5.30;;;;;;;9.84;100.00;99291.55;109346;1253;73393;-58
2023/12/21 09:04:34;;;;;;;11.20;5.50;;;;;;;9.79;100.00;99288.83;109382;1253;65791;-57
2023/12/21 09:07:02;;;;;;;8.20;4.30;;;;;;;9.78;100.00;99289.27;109359;1253;70839;-57
2023/12/21 09:09:31;;;;;;;7.80;4.20;;;;;;;9.76;100.00;99290.59;109305;1253;60495;-61
2023/12/21 09:11:59;;;;;;;7.10;4.00;;;;;;;9.71;100.00;99291.16;109319;1254;59952;-58
2023/12/21 09:14:27;;;;;;;7.20;4.00;;;;;;;9.68;100.00;99291.32;109390;1253;76693;-57
2023/12/21 09:16:54;;;;;;;8.40;5.20;;;;;;;9.70;100.00;99288.89;109356;1253;67037;-57
2023/12/21 09:19:25;;;;;;;9.10;5.20;;;;;;;9.66;100.00;99284.71;109311;1254;75705;-58
2023/12/21 09:21:53;;;;;;;6.80;5.30;;;;;;;9.60;100.00;99279.83;109296;1253;60936;-57
2023/12/21 09:24:20;;;;;;;8.40;4.40;;;;;;;9.57;100.00;99279.36;109314;1254;58932;-58
2023/12/21 09:26:48;;;;;;;7.20;4.70;;;;;;;9.56;100.00;99268.23;109321;1252;74836;-57
2023/12/21 09:29:15;;;;;;;8.60;4.10;;;;;;;9.52;100.00;99253.14;109325;1252;66682;-57
2023/12/21 09:31:43;;;;;;;7.60;4.00;;;;;;;9.49;100.00;99243.21;109289;1254;72769;-62
2023/12/21 09:34:11;;;;;;;8.40;4.90;;;;;;;9.48;100.00;99234.69;109339;1253;63971;-57
2023/12/21 09:36:39;;;;;;;11.00;5.10;;;;;;;9.48;100.00;99223.61;109325;1252;60077;-57
2023/12/21 09:39:07;;;;;;;8.90;4.90;;;;;;;9.49;100.00;99218.91;109335;1252;74847;-57
2023/12/21 09:41:34;;;;;;;10.40;5.30;;;;;;;9.53;100.00;99213.44;109375;1253;67084;-57
2023/12/21 09:44:11;;;;;;;9.20;5.80;;;;;;;9.60;100.00;99218.91;109306;1254;76801;-57
2023/12/21 09:46:39;;;;;;;;;;;;;;;9.66;100.00;99222.70;109365;1253;62793;-58
2023/12/21 09:49:07;;;;;;;10.80;6.10;;;;;;;9.69;100.00;99225.38;109243;1253;60360;-57
2023/12/21 09:51:35;;;;;;;8.80;5.70;;;;;;;9.69;100.00;99228.47;109229;1252;74810;-58
2023/12/21 09:54:04;;;;;;;9.70;5.30;;;;;;;9.68;100.00;99234.47;109245;1252;68295;-58
2023/12/21 09:56:32;;;;;;;8.60;5.30;;;;;;;9.66;100.00;99229.39;109388;1252;74709;-58
2023/12/21 09:59:00;;;;;;;9.40;5.70;;;;;;;9.67;100.00;99225.59;109347;1253;61158;-58
2023/12/21 10:01:28;;;;;;;10.10;6.60;;;;;;;9.74;100.00;99217.41;109314;1253;60182;-58
2023/12/21 10:03:59;;;;;;;9.70;5.60;;;;;;;9.79;100.00;99208.23;109354;1253;76828;-57
2023/12/21 10:06:27;;;;;;;9.20;6.00;;;;;;;9.86;100.00;99210.10;109339;1254;65350;-58
2023/12/21 10:08:54;;;;;;;10.60;6.40;;;;;;;9.85;100.00;99214.42;109317;1253;71441;-57
2023/12/21 10:11:22;;;;;;;10.10;6.20;;;;;;;9.82;100.00;99220.20;109285;1253;60458;-59
2023/12/21 10:13:50;;;;;;;9.90;6.30;;;;;;;9.82;100.00;99221.92;109252;1252;60133;-58
2023/12/21 10:16:18;;;;;;;12.70;7.60;;;;;;;9.76;100.00;99220.85;109314;1252;76402;-57
2023/12/21 10:18:46;;;;;;;12.10;6.60;;;;;;;9.70;100.00;99216.53;109344;1253;67191;-58
2023/12/21 10:21:14;;;;;;;10.60;6.80;;;;;;;9.65;100.00;99215.75;109285;1253;72748;-58
2023/12/21 10:23:42;;;;;;;9.80;6.50;;;;;;;9.62;100.00;99217.14;109155;1253;61788;-57
2023/12/21 10:26:10;;;;;;;17.00;7.40;;;;;;;9.62;100.00;99225.79;109273;1253;59182;-57
2023/12/21 10:28:37;;;;;;;10.30;6.90;;;;;;;9.63;100.00;99228.43;109350;1252;75761;-57
2023/12/21 10:31:06;;;;;;;10.80;7.00;;;;;;;9.65;100.00;99226.62;109309;1253;65634;-59
2023/12/21 10:33:35;;;;;;;14.00;7.40;;;;;;;9.68;100.00;99225.35;109267;1253;73107;-56
2023/12/21 10:36:03;;;;;;;12.20;6.50;;;;;;;9.72;100.00;99225.14;109322;1253;62489;-57
2023/12/21 10:38:31;;;;;;;11.30;7.00;;;;;;;9.77;100.00;99219.48;109328;1252;60322;-58
2023/12/21 10:41:05;;;;;;;11.50;7.80;;;;;;;9.81;100.00;99217.27;109302;1253;73732;-56
2023/12/21 10:43:34;;;;;;;12.60;7.10;;;;;;;9.82;100.00;99215.16;109312;1252;65696;-57
2023/12/21 10:46:03;;;;;;;11.40;7.40;;;;;;;9.82;100.00;99205.02;109274;1251;72760;-57
2023/12/21 10:48:31;;;;;;;14.10;7.50;;;;;;;9.84;100.00;99195.33;109272;1253;59367;-57
2023/12/21 10:50:59;;;;;;;15.50;7.50;;;;;;;9.83;100.00;99184.80;109248;1252;63187;-56
2023/12/21 10:53:27;;;;;;;12.90;6.70;;;;;;;9.83;100.00;99174.75;109266;1252;74767;-60
2023/12/21 10:55:55;;;;;;;11.40;7.80;;;;;;;9.85;100.00;99167.51;109446;1252;68483;-57
2023/12/21 10:58:24;;;;;;;13.00;8.10;;;;;;;9.85;100.00;99162.66;109386;1251;72413;-56
2023/12/21 11:00:53;;;;;;;12.40;7.60;;;;;;;9.83;100.00;99160.42;109226;1253;60500;-60
2023/12/21 11:03:20;;;;;;;10.70;7.10;;;;;;;9.80;100.00;99168.35;109285;1254;58891;-62
2023/12/21 11:05:48;;;;;;;10.80;6.90;;;;;;;9.77;100.00;99166.76;109426;1252;77245;-58
2023/12/21 11:08:16;;;;;;;12.50;7.40;;;;;;;9.73;100.00;99154.20;109304;1252;65986;-60
2023/12/21 11:10:44;;;;;;;11.40;7.00;;;;;;;9.71;100.00;99149.43;109310;1253;75338;-59
2023/12/21 11:13:12;;;;;;;12.60;8.30;;;;;;;9.72;100.00;99144.10;109238;1251;60221;-59
2023/12/21 11:15:39;;;;;;;10.80;7.50;;;;;;;9.72;100.00;99141.39;109333;1253;60632;-56
2023/12/21 11:18:09;;;;;;;12.70;7.90;;;;;;;9.70;100.00;99136.23;109401;1252;78075;-57
2023/12/21 11:20:43;;;;;;;12.20;8.10;;;;;;;9.71;100.00;99124.61;109333;1253;67885;-56
2023/12/21 11:23:16;;;;;;;15.10;8.30;;;;;;;9.73;100.00;99126.17;109200;1253;75837;-56
2023/12/21 11:25:54;;;;;;;10.50;7.20;;;;;;;9.75;100.00;99115.69;109303;1253;61213;-57
2023/12/21 11:28:27;;;;;;;13.40;8.20;;;;;;;9.74;100.00;99108.27;109298;1252;62792;-56